sensor_id;sensor_type;location;lat;lon;timestamp;temperature;humidity
67027;DHT22;53933;52.142;11.738;2022-09-23T00:02:23;23.70;51.10
67027;DHT22;53933;52.142;11.738;2022-09-23T00:04:50;23.70;50.90
67027;DHT22;53933;52.142;11.738;2022-09-23T00:07:17;23.70;50.90
67027;DHT22;53933;52.142;11.738;2022-09-23T00:09:43;23.70;50.80
67027;DHT22;53933;52.142;11.738;2022-09-23T00:12:10;23.70;51.00
67027;DHT22;53933;52.142;11.738;2022-09-23T00:14:38;23.70;50.80
67027;DHT22;53933;52.142;11.738;2022-09-23T00:17:05;23.70;50.70
67027;DHT22;53933;52.142;11.738;2022-09-23T00:19:31;23.60;50.60
67027;DHT22;53933;52.142;11.738;2022-09-23T00:21:58;23.10;49.50
67027;DHT22;53933;52.142;11.738;2022-09-23T00:24:24;22.40;49.80
67027;DHT22;53933;52.142;11.738;2022-09-23T00:26:51;21.90;50.20
67027;DHT22;53933;52.142;11.738;2022-09-23T00:29:18;21.50;50.80
67027;DHT22;53933;52.142;11.738;2022-09-23T00:31:46;21.20;50.90
67027;DHT22;53933;52.142;11.738;2022-09-23T00:34:12;21.00;51.20
67027;DHT22;53933;52.142;11.738;2022-09-23T00:36:39;20.80;51.20
67027;DHT22;53933;52.142;11.738;2022-09-23T00:39:06;20.60;51.50
67027;DHT22;53933;52.142;11.738;2022-09-23T00:41:32;20.50;51.80
67027;DHT22;53933;52.142;11.738;2022-09-23T00:44:00;20.40;51.90
67027;DHT22;53933;52.142;11.738;2022-09-23T00:46:29;20.30;52.70
67027;DHT22;53933;52.142;11.738;2022-09-23T00:49:02;20.30;52.10
67027;DHT22;53933;52.142;11.738;2022-09-23T00:51:32;20.30;52.20
67027;DHT22;53933;52.142;11.738;2022-09-23T00:54:00;20.30;52.30
67027;DHT22;53933;52.142;11.738;2022-09-23T00:56:29;20.20;52.40
67027;DHT22;53933;52.142;11.738;2022-09-23T00:58:57;20.10;52.40
67027;DHT22;53933;52.142;11.738;2022-09-23T01:01:24;20.10;52.30
67027;DHT22;53933;52.142;11.738;2022-09-23T01:03:52;20.00;52.40
67027;DHT22;53933;52.142;11.738;2022-09-23T01:06:21;20.00;52.30
67027;DHT22;53933;52.142;11.738;2022-09-23T01:08:48;20.00;52.30
67027;DHT22;53933;52.142;11.738;2022-09-23T01:11:26;19.90;52.30
67027;DHT22;53933;52.142;11.738;2022-09-23T01:14:01;19.90;52.30
67027;DHT22;53933;52.142;11.738;2022-09-23T01:16:37;19.80;52.30
67027;DHT22;53933;52.142;11.738;2022-09-23T01:19:09;19.70;52.50
67027;DHT22;53933;52.142;11.738;2022-09-23T01:21:40;19.70;53.30
67027;DHT22;53933;52.142;11.738;2022-09-23T01:24:31;19.70;52.70
67027;DHT22;53933;52.142;11.738;2022-09-23T01:27:01;19.70;52.60
67027;DHT22;53933;52.142;11.738;2022-09-23T01:29:39;19.70;52.50
67027;DHT22;53933;52.142;11.738;2022-09-23T01:32:15;19.60;52.70
67027;DHT22;53933;52.142;11.738;2022-09-23T01:34:44;19.60;52.60
67027;DHT22;53933;52.142;11.738;2022-09-23T01:37:15;19.50;52.60
67027;DHT22;53933;52.142;11.738;2022-09-23T01:39:47;19.40;52.60
67027;DHT22;53933;52.142;11.738;2022-09-23T01:42:20;19.40;52.80
67027;DHT22;53933;52.142;11.738;2022-09-23T01:44:50;19.40;52.70
67027;DHT22;53933;52.142;11.738;2022-09-23T01:47:20;19.30;52.70
67027;DHT22;53933;52.142;11.738;2022-09-23T01:49:49;19.20;52.90
67027;DHT22;53933;52.142;11.738;2022-09-23T01:52:17;19.10;53.00
67027;DHT22;53933;52.142;11.738;2022-09-23T01:54:47;19.10;53.00
67027;DHT22;53933;52.142;11.738;2022-09-23T01:57:16;19.00;53.00
67027;DHT22;53933;52.142;11.738;2022-09-23T01:59:45;19.00;53.20
67027;DHT22;53933;52.142;11.738;2022-09-23T02:02:13;19.00;53.30
67027;DHT22;53933;52.142;11.738;2022-09-23T02:04:43;18.90;53.30
67027;DHT22;53933;52.142;11.738;2022-09-23T02:07:12;18.90;53.20
67027;DHT22;53933;52.142;11.738;2022-09-23T02:09:42;18.90;53.20
67027;DHT22;53933;52.142;11.738;2022-09-23T02:12:12;18.90;53.30
67027;DHT22;53933;52.142;11.738;2022-09-23T02:14:42;18.90;54.00
67027;DHT22;53933;52.142;11.738;2022-09-23T02:17:10;18.80;53.40
67027;DHT22;53933;52.142;11.738;2022-09-23T02:19:40;18.90;53.40
67027;DHT22;53933;52.142;11.738;2022-09-23T02:22:10;18.90;53.70
67027;DHT22;53933;52.142;11.738;2022-09-23T02:24:38;19.10;54.30
67027;DHT22;53933;52.142;11.738;2022-09-23T02:27:06;19.50;54.30
67027;DHT22;53933;52.142;11.738;2022-09-23T02:29:39;19.80;53.90
67027;DHT22;53933;52.142;11.738;2022-09-23T02:32:10;20.00;53.50
67027;DHT22;53933;52.142;11.738;2022-09-23T02:34:42;20.30;53.00
67027;DHT22;53933;52.142;11.738;2022-09-23T02:37:22;20.50;52.70
67027;DHT22;53933;52.142;11.738;2022-09-23T02:39:57;20.70;52.30
67027;DHT22;53933;52.142;11.738;2022-09-23T02:42:32;20.80;52.00
67027;DHT22;53933;52.142;11.738;2022-09-23T02:45:00;21.00;52.00
67027;DHT22;53933;52.142;11.738;2022-09-23T02:47:29;21.10;51.90
67027;DHT22;53933;52.142;11.738;2022-09-23T02:49:57;21.20;51.70
67027;DHT22;53933;52.142;11.738;2022-09-23T02:52:26;21.30;51.50
67027;DHT22;53933;52.142;11.738;2022-09-23T02:54:52;21.40;51.40
67027;DHT22;53933;52.142;11.738;2022-09-23T02:57:19;21.40;51.20
67027;DHT22;53933;52.142;11.738;2022-09-23T02:59:46;21.50;51.10
67027;DHT22;53933;52.142;11.738;2022-09-23T03:02:26;21.60;51.10
67027;DHT22;53933;52.142;11.738;2022-09-23T03:04:58;21.60;51.10
67027;DHT22;53933;52.142;11.738;2022-09-23T03:07:34;21.60;51.00
67027;DHT22;53933;52.142;11.738;2022-09-23T03:10:11;21.70;51.00
67027;DHT22;53933;52.142;11.738;2022-09-23T03:12:45;21.70;50.90
67027;DHT22;53933;52.142;11.738;2022-09-23T03:15:21;21.70;50.80
67027;DHT22;53933;52.142;11.738;2022-09-23T03:17:57;21.80;50.80
67027;DHT22;53933;52.142;11.738;2022-09-23T03:20:28;21.80;50.70
67027;DHT22;53933;52.142;11.738;2022-09-23T03:23:00;21.80;50.70
67027;DHT22;53933;52.142;11.738;2022-09-23T03:25:30;21.90;50.70
67027;DHT22;53933;52.142;11.738;2022-09-23T03:27:59;21.90;50.50
67027;DHT22;53933;52.142;11.738;2022-09-23T03:30:27;21.90;50.50
67027;DHT22;53933;52.142;11.738;2022-09-23T03:32:56;21.90;50.40
67027;DHT22;53933;52.142;11.738;2022-09-23T03:35:27;22.00;50.40
67027;DHT22;53933;52.142;11.738;2022-09-23T03:38:00;22.00;50.50
67027;DHT22;53933;52.142;11.738;2022-09-23T03:40:32;22.00;50.50
67027;DHT22;53933;52.142;11.738;2022-09-23T03:43:01;22.00;50.50
67027;DHT22;53933;52.142;11.738;2022-09-23T03:45:31;22.00;50.40
67027;DHT22;53933;52.142;11.738;2022-09-23T03:47:59;22.10;50.40
67027;DHT22;53933;52.142;11.738;2022-09-23T03:50:26;22.10;50.30
67027;DHT22;53933;52.142;11.738;2022-09-23T03:52:53;22.10;50.30
67027;DHT22;53933;52.142;11.738;2022-09-23T03:55:21;22.10;50.30
67027;DHT22;53933;52.142;11.738;2022-09-23T03:57:48;22.10;50.30
67027;DHT22;53933;52.142;11.738;2022-09-23T04:00:15;22.20;50.40
67027;DHT22;53933;52.142;11.738;2022-09-23T04:02:42;22.20;50.30
67027;DHT22;53933;52.142;11.738;2022-09-23T04:05:09;22.20;50.30
67027;DHT22;53933;52.142;11.738;2022-09-23T04:07:36;22.20;50.30
67027;DHT22;53933;52.142;11.738;2022-09-23T04:10:04;22.20;50.50
67027;DHT22;53933;52.142;11.738;2022-09-23T04:12:32;22.20;50.50
67027;DHT22;53933;52.142;11.738;2022-09-23T04:14:58;22.20;50.40
67027;DHT22;53933;52.142;11.738;2022-09-23T04:17:25;22.20;50.40
67027;DHT22;53933;52.142;11.738;2022-09-23T04:19:51;22.20;50.50
67027;DHT22;53933;52.142;11.738;2022-09-23T04:22:18;22.20;50.50
67027;DHT22;53933;52.142;11.738;2022-09-23T04:24:44;22.30;50.60
67027;DHT22;53933;52.142;11.738;2022-09-23T04:27:11;22.30;50.70
67027;DHT22;53933;52.142;11.738;2022-09-23T04:29:39;22.30;50.70
67027;DHT22;53933;52.142;11.738;2022-09-23T04:32:06;22.30;50.70
67027;DHT22;53933;52.142;11.738;2022-09-23T04:34:32;22.30;50.70
67027;DHT22;53933;52.142;11.738;2022-09-23T04:36:59;22.30;50.70
67027;DHT22;53933;52.142;11.738;2022-09-23T04:39:25;22.30;50.60
67027;DHT22;53933;52.142;11.738;2022-09-23T04:41:52;22.30;50.50
67027;DHT22;53933;52.142;11.738;2022-09-23T04:44:18;22.30;50.40
67027;DHT22;53933;52.142;11.738;2022-09-23T04:46:47;22.30;50.40
67027;DHT22;53933;52.142;11.738;2022-09-23T04:49:14;22.30;50.40
67027;DHT22;53933;52.142;11.738;2022-09-23T04:51:41;22.30;50.20
67027;DHT22;53933;52.142;11.738;2022-09-23T04:54:08;22.30;50.30
67027;DHT22;53933;52.142;11.738;2022-09-23T04:56:35;22.40;50.50
67027;DHT22;53933;52.142;11.738;2022-09-23T04:59:02;22.40;50.40
67027;DHT22;53933;52.142;11.738;2022-09-23T05:01:30;22.40;50.40
67027;DHT22;53933;52.142;11.738;2022-09-23T05:04:01;22.40;50.70
67027;DHT22;53933;52.142;11.738;2022-09-23T05:06:30;22.50;50.70
67027;DHT22;53933;52.142;11.738;2022-09-23T05:08:57;22.50;50.70
67027;DHT22;53933;52.142;11.738;2022-09-23T05:11:24;22.50;50.70
67027;DHT22;53933;52.142;11.738;2022-09-23T05:13:53;22.50;50.80
67027;DHT22;53933;52.142;11.738;2022-09-23T05:16:20;22.60;51.00
67027;DHT22;53933;52.142;11.738;2022-09-23T05:18:48;22.60;51.00
67027;DHT22;53933;52.142;11.738;2022-09-23T05:21:18;22.60;51.30
67027;DHT22;53933;52.142;11.738;2022-09-23T05:23:47;22.60;51.40
67027;DHT22;53933;52.142;11.738;2022-09-23T05:26:14;22.70;51.40
67027;DHT22;53933;52.142;11.738;2022-09-23T05:28:40;22.70;51.40
67027;DHT22;53933;52.142;11.738;2022-09-23T05:31:09;22.70;51.60
67027;DHT22;53933;52.142;11.738;2022-09-23T05:33:37;22.70;51.70
67027;DHT22;53933;52.142;11.738;2022-09-23T05:36:04;22.70;51.70
67027;DHT22;53933;52.142;11.738;2022-09-23T05:38:32;22.70;51.70
67027;DHT22;53933;52.142;11.738;2022-09-23T05:41:00;22.70;51.60
67027;DHT22;53933;52.142;11.738;2022-09-23T05:43:27;22.70;51.70
67027;DHT22;53933;52.142;11.738;2022-09-23T05:46:00;22.70;51.90
67027;DHT22;53933;52.142;11.738;2022-09-23T05:48:28;22.80;52.10
67027;DHT22;53933;52.142;11.738;2022-09-23T05:50:55;22.80;52.10
67027;DHT22;53933;52.142;11.738;2022-09-23T05:53:22;22.80;52.00
67027;DHT22;53933;52.142;11.738;2022-09-23T05:55:50;22.80;52.00
67027;DHT22;53933;52.142;11.738;2022-09-23T05:58:18;22.80;52.20
67027;DHT22;53933;52.142;11.738;2022-09-23T06:00:45;22.80;52.30
67027;DHT22;53933;52.142;11.738;2022-09-23T06:03:14;22.80;52.30
67027;DHT22;53933;52.142;11.738;2022-09-23T06:05:41;22.80;52.30
67027;DHT22;53933;52.142;11.738;2022-09-23T06:08:08;22.90;52.20
67027;DHT22;53933;52.142;11.738;2022-09-23T06:10:36;22.90;52.20
67027;DHT22;53933;52.142;11.738;2022-09-23T06:13:04;22.90;52.20
67027;DHT22;53933;52.142;11.738;2022-09-23T06:15:30;22.90;52.20
67027;DHT22;53933;52.142;11.738;2022-09-23T06:17:57;22.90;52.20
67027;DHT22;53933;52.142;11.738;2022-09-23T06:20:24;22.90;52.20
67027;DHT22;53933;52.142;11.738;2022-09-23T06:22:50;22.90;52.20
67027;DHT22;53933;52.142;11.738;2022-09-23T06:25:17;22.90;52.50
67027;DHT22;53933;52.142;11.738;2022-09-23T06:27:51;22.80;51.70
67027;DHT22;53933;52.142;11.738;2022-09-23T06:30:20;22.70;51.90
67027;DHT22;53933;52.142;11.738;2022-09-23T06:32:47;22.70;52.70
67027;DHT22;53933;52.142;11.738;2022-09-23T06:35:16;22.70;52.70
67027;DHT22;53933;52.142;11.738;2022-09-23T06:37:43;22.70;52.50
67027;DHT22;53933;52.142;11.738;2022-09-23T06:40:10;22.80;51.90
67027;DHT22;53933;52.142;11.738;2022-09-23T06:42:38;22.90;50.50
67027;DHT22;53933;52.142;11.738;2022-09-23T06:45:05;23.00;50.20
67027;DHT22;53933;52.142;11.738;2022-09-23T06:47:34;23.00;49.50
67027;DHT22;53933;52.142;11.738;2022-09-23T06:50:02;22.90;49.50
67027;DHT22;53933;52.142;11.738;2022-09-23T06:52:28;23.10;48.70
67027;DHT22;53933;52.142;11.738;2022-09-23T06:54:55;23.30;48.20
67027;DHT22;53933;52.142;11.738;2022-09-23T06:57:22;23.50;47.30
67027;DHT22;53933;52.142;11.738;2022-09-23T06:59:48;23.70;47.50
67027;DHT22;53933;52.142;11.738;2022-09-23T07:02:15;23.80;46.70
67027;DHT22;53933;52.142;11.738;2022-09-23T07:04:43;24.00;46.60
67027;DHT22;53933;52.142;11.738;2022-09-23T07:07:10;24.00;46.90
67027;DHT22;53933;52.142;11.738;2022-09-23T07:09:38;24.10;45.80
67027;DHT22;53933;52.142;11.738;2022-09-23T07:12:05;23.90;46.40
67027;DHT22;53933;52.142;11.738;2022-09-23T07:14:32;23.90;46.90
67027;DHT22;53933;52.142;11.738;2022-09-23T07:16:59;23.90;46.50
67027;DHT22;53933;52.142;11.738;2022-09-23T07:19:26;23.80;45.50
67027;DHT22;53933;52.142;11.738;2022-09-23T07:21:54;23.60;46.80
67027;DHT22;53933;52.142;11.738;2022-09-23T07:24:21;23.40;47.50
67027;DHT22;53933;52.142;11.738;2022-09-23T07:26:48;23.50;47.00
67027;DHT22;53933;52.142;11.738;2022-09-23T07:29:14;23.50;47.40
67027;DHT22;53933;52.142;11.738;2022-09-23T07:31:41;23.60;48.20
67027;DHT22;53933;52.142;11.738;2022-09-23T07:34:09;23.60;46.60
67027;DHT22;53933;52.142;11.738;2022-09-23T07:36:36;23.90;47.40
67027;DHT22;53933;52.142;11.738;2022-09-23T07:39:07;24.10;46.60
67027;DHT22;53933;52.142;11.738;2022-09-23T07:41:34;24.20;47.40
67027;DHT22;53933;52.142;11.738;2022-09-23T07:44:02;24.30;47.30
67027;DHT22;53933;52.142;11.738;2022-09-23T07:46:32;24.50;46.80
67027;DHT22;53933;52.142;11.738;2022-09-23T07:49:00;24.40;45.40
67027;DHT22;53933;52.142;11.738;2022-09-23T07:51:28;24.40;45.60
67027;DHT22;53933;52.142;11.738;2022-09-23T07:53:56;24.10;45.40
67027;DHT22;53933;52.142;11.738;2022-09-23T07:56:26;24.00;46.90
67027;DHT22;53933;52.142;11.738;2022-09-23T07:58:53;24.00;47.00
67027;DHT22;53933;52.142;11.738;2022-09-23T08:01:25;24.00;45.90
67027;DHT22;53933;52.142;11.738;2022-09-23T08:03:52;24.00;46.40
67027;DHT22;53933;52.142;11.738;2022-09-23T08:06:18;24.10;47.50
67027;DHT22;53933;52.142;11.738;2022-09-23T08:08:45;24.20;45.90
67027;DHT22;53933;52.142;11.738;2022-09-23T08:11:12;24.20;44.70
67027;DHT22;53933;52.142;11.738;2022-09-23T08:13:40;24.40;45.20
67027;DHT22;53933;52.142;11.738;2022-09-23T08:16:07;24.50;44.00
67027;DHT22;53933;52.142;11.738;2022-09-23T08:18:35;24.50;44.70
67027;DHT22;53933;52.142;11.738;2022-09-23T08:21:02;24.50;44.70
67027;DHT22;53933;52.142;11.738;2022-09-23T08:23:28;24.60;46.60
67027;DHT22;53933;52.142;11.738;2022-09-23T08:25:58;24.90;46.80
67027;DHT22;53933;52.142;11.738;2022-09-23T08:28:26;25.20;46.70
67027;DHT22;53933;52.142;11.738;2022-09-23T08:30:54;25.60;45.70
67027;DHT22;53933;52.142;11.738;2022-09-23T08:33:21;25.70;45.10
67027;DHT22;53933;52.142;11.738;2022-09-23T08:35:48;25.80;44.80
67027;DHT22;53933;52.142;11.738;2022-09-23T08:38:14;26.00;44.70
67027;DHT22;53933;52.142;11.738;2022-09-23T08:40:44;26.20;45.70
67027;DHT22;53933;52.142;11.738;2022-09-23T08:43:16;26.40;45.80
67027;DHT22;53933;52.142;11.738;2022-09-23T08:45:45;26.70;45.10
67027;DHT22;53933;52.142;11.738;2022-09-23T08:48:16;27.00;44.30
67027;DHT22;53933;52.142;11.738;2022-09-23T08:50:47;27.20;44.40
67027;DHT22;53933;52.142;11.738;2022-09-23T08:53:22;27.50;43.50
67027;DHT22;53933;52.142;11.738;2022-09-23T08:55:51;27.60;43.50
67027;DHT22;53933;52.142;11.738;2022-09-23T08:58:32;27.80;42.90
67027;DHT22;53933;52.142;11.738;2022-09-23T09:01:09;27.80;42.90
67027;DHT22;53933;52.142;11.738;2022-09-23T09:03:45;27.90;42.80
67027;DHT22;53933;52.142;11.738;2022-09-23T09:06:17;28.00;42.60
67027;DHT22;53933;52.142;11.738;2022-09-23T09:08:51;28.20;42.70
67027;DHT22;53933;52.142;11.738;2022-09-23T09:11:22;28.30;42.30
67027;DHT22;53933;52.142;11.738;2022-09-23T09:13:55;28.40;42.00
67027;DHT22;53933;52.142;11.738;2022-09-23T09:16:40;28.50;42.60
67027;DHT22;53933;52.142;11.738;2022-09-23T09:19:18;28.60;42.30
67027;DHT22;53933;52.142;11.738;2022-09-23T09:21:46;28.60;42.40
67027;DHT22;53933;52.142;11.738;2022-09-23T09:24:17;28.70;42.30
67027;DHT22;53933;52.142;11.738;2022-09-23T09:26:46;28.60;42.30
67027;DHT22;53933;52.142;11.738;2022-09-23T09:29:16;28.60;42.40
67027;DHT22;53933;52.142;11.738;2022-09-23T09:31:45;28.70;42.20
67027;DHT22;53933;52.142;11.738;2022-09-23T09:34:23;28.70;42.00
67027;DHT22;53933;52.142;11.738;2022-09-23T09:36:59;28.70;41.70
67027;DHT22;53933;52.142;11.738;2022-09-23T09:39:28;28.50;41.60
67027;DHT22;53933;52.142;11.738;2022-09-23T09:41:55;28.40;42.20
67027;DHT22;53933;52.142;11.738;2022-09-23T09:44:26;28.20;42.70
67027;DHT22;53933;52.142;11.738;2022-09-23T09:49:55;28.10;42.60
67027;DHT22;53933;52.142;11.738;2022-09-23T09:52:24;28.10;43.50
67027;DHT22;53933;52.142;11.738;2022-09-23T09:54:53;28.10;42.60
67027;DHT22;53933;52.142;11.738;2022-09-23T09:57:28;28.10;44.10
67027;DHT22;53933;52.142;11.738;2022-09-23T09:59:56;28.00;44.70
67027;DHT22;53933;52.142;11.738;2022-09-23T10:02:27;27.90;45.30
67027;DHT22;53933;52.142;11.738;2022-09-23T10:05:01;27.80;45.70
67027;DHT22;53933;52.142;11.738;2022-09-23T10:07:30;27.70;46.00
67027;DHT22;53933;52.142;11.738;2022-09-23T10:09:57;27.60;46.10
67027;DHT22;53933;52.142;11.738;2022-09-23T10:12:43;27.60;46.30
67027;DHT22;53933;52.142;11.738;2022-09-23T10:15:26;27.60;46.20
67027;DHT22;53933;52.142;11.738;2022-09-23T10:17:52;27.90;46.00
67027;DHT22;53933;52.142;11.738;2022-09-23T10:20:21;28.20;45.50
67027;DHT22;53933;52.142;11.738;2022-09-23T10:22:47;28.40;45.10
67027;DHT22;53933;52.142;11.738;2022-09-23T10:25:18;28.60;44.80
67027;DHT22;53933;52.142;11.738;2022-09-23T10:27:45;28.70;44.60
67027;DHT22;53933;52.142;11.738;2022-09-23T10:30:20;28.80;44.40
67027;DHT22;53933;52.142;11.738;2022-09-23T10:32:47;28.80;44.40
67027;DHT22;53933;52.142;11.738;2022-09-23T10:35:16;28.90;45.20
67027;DHT22;53933;52.142;11.738;2022-09-23T10:37:49;28.80;44.50
67027;DHT22;53933;52.142;11.738;2022-09-23T10:40:20;28.70;44.50
67027;DHT22;53933;52.142;11.738;2022-09-23T10:43:25;28.70;44.70
67027;DHT22;53933;52.142;11.738;2022-09-23T10:46:22;28.50;45.20
67027;DHT22;53933;52.142;11.738;2022-09-23T10:49:20;28.20;45.50
67027;DHT22;53933;52.142;11.738;2022-09-23T10:51:56;28.00;45.90
67027;DHT22;53933;52.142;11.738;2022-09-23T10:54:31;28.00;46.10
67027;DHT22;53933;52.142;11.738;2022-09-23T10:57:08;28.10;46.30
67027;DHT22;53933;52.142;11.738;2022-09-23T10:59:59;28.10;46.20
67027;DHT22;53933;52.142;11.738;2022-09-23T11:02:44;28.10;46.50
67027;DHT22;53933;52.142;11.738;2022-09-23T11:05:25;28.10;46.90
67027;DHT22;53933;52.142;11.738;2022-09-23T11:08:05;28.10;46.70
67027;DHT22;53933;52.142;11.738;2022-09-23T11:10:55;28.10;47.10
67027;DHT22;53933;52.142;11.738;2022-09-23T11:13:49;28.00;47.20
67027;DHT22;53933;52.142;11.738;2022-09-23T11:16:23;28.00;47.50
67027;DHT22;53933;52.142;11.738;2022-09-23T11:19:13;27.90;47.60
67027;DHT22;53933;52.142;11.738;2022-09-23T11:22:09;27.90;47.90
67027;DHT22;53933;52.142;11.738;2022-09-23T11:27:54;27.80;48.10
67027;DHT22;53933;52.142;11.738;2022-09-23T11:30:29;27.90;48.30
67027;DHT22;53933;52.142;11.738;2022-09-23T11:33:17;27.80;48.30
67027;DHT22;53933;52.142;11.738;2022-09-23T11:35:49;27.80;48.60
67027;DHT22;53933;52.142;11.738;2022-09-23T11:38:20;27.80;48.60
67027;DHT22;53933;52.142;11.738;2022-09-23T11:40:53;27.80;48.70
67027;DHT22;53933;52.142;11.738;2022-09-23T11:43:23;27.80;48.80
67027;DHT22;53933;52.142;11.738;2022-09-23T11:45:56;27.70;48.50
67027;DHT22;53933;52.142;11.738;2022-09-23T11:48:28;27.70;48.60
67027;DHT22;53933;52.142;11.738;2022-09-23T11:50:57;27.60;48.70
67027;DHT22;53933;52.142;11.738;2022-09-23T11:53:33;27.60;48.80
67027;DHT22;53933;52.142;11.738;2022-09-23T11:56:06;27.50;48.70
67027;DHT22;53933;52.142;11.738;2022-09-23T11:58:39;27.50;48.90
67027;DHT22;53933;52.142;11.738;2022-09-23T12:01:10;27.50;48.80
67027;DHT22;53933;52.142;11.738;2022-09-23T12:03:44;27.50;48.90
67027;DHT22;53933;52.142;11.738;2022-09-23T12:06:14;27.50;48.60
67027;DHT22;53933;52.142;11.738;2022-09-23T12:08:43;27.40;48.50
67027;DHT22;53933;52.142;11.738;2022-09-23T12:11:21;27.30;48.70
67027;DHT22;53933;52.142;11.738;2022-09-23T12:13:55;27.20;48.80
67027;DHT22;53933;52.142;11.738;2022-09-23T12:16:32;27.10;49.00
67027;DHT22;53933;52.142;11.738;2022-09-23T12:19:07;27.00;49.20
67027;DHT22;53933;52.142;11.738;2022-09-23T12:21:48;26.90;49.20
67027;DHT22;53933;52.142;11.738;2022-09-23T12:24:26;26.90;49.20
67027;DHT22;53933;52.142;11.738;2022-09-23T12:27:00;26.80;49.30
67027;DHT22;53933;52.142;11.738;2022-09-23T12:29:32;26.80;49.50
67027;DHT22;53933;52.142;11.738;2022-09-23T12:32:01;26.70;49.50
67027;DHT22;53933;52.142;11.738;2022-09-23T12:34:38;26.60;49.50
67027;DHT22;53933;52.142;11.738;2022-09-23T12:37:06;26.60;49.60
67027;DHT22;53933;52.142;11.738;2022-09-23T12:39:34;26.50;49.60
67027;DHT22;53933;52.142;11.738;2022-09-23T12:42:03;26.50;49.80
67027;DHT22;53933;52.142;11.738;2022-09-23T12:44:35;26.60;49.80
67027;DHT22;53933;52.142;11.738;2022-09-23T12:47:37;26.70;49.50
67027;DHT22;53933;52.142;11.738;2022-09-23T12:59:22;27.00;49.50
67027;DHT22;53933;52.142;11.738;2022-09-23T13:01:51;27.00;49.20
67027;DHT22;53933;52.142;11.738;2022-09-23T13:04:33;27.00;49.30
67027;DHT22;53933;52.142;11.738;2022-09-23T13:07:22;27.00;49.50
67027;DHT22;53933;52.142;11.738;2022-09-23T13:09:53;27.00;49.60
67027;DHT22;53933;52.142;11.738;2022-09-23T13:12:25;27.00;49.70
67027;DHT22;53933;52.142;11.738;2022-09-23T13:14:54;27.00;49.70
67027;DHT22;53933;52.142;11.738;2022-09-23T13:17:30;27.00;49.70
67027;DHT22;53933;52.142;11.738;2022-09-23T13:20:00;27.10;49.80
67027;DHT22;53933;52.142;11.738;2022-09-23T13:23:05;27.10;49.90
67027;DHT22;53933;52.142;11.738;2022-09-23T13:25:41;27.10;49.80
67027;DHT22;53933;52.142;11.738;2022-09-23T13:28:20;27.10;49.70
67027;DHT22;53933;52.142;11.738;2022-09-23T13:30:49;27.10;49.70
67027;DHT22;53933;52.142;11.738;2022-09-23T13:33:24;27.10;49.90
67027;DHT22;53933;52.142;11.738;2022-09-23T13:35:56;27.00;49.40
67027;DHT22;53933;52.142;11.738;2022-09-23T13:38:26;26.90;49.60
67027;DHT22;53933;52.142;11.738;2022-09-23T13:40:57;26.80;49.70
67027;DHT22;53933;52.142;11.738;2022-09-23T13:43:27;26.70;49.80
67027;DHT22;53933;52.142;11.738;2022-09-23T13:45:56;26.60;49.90
67027;DHT22;53933;52.142;11.738;2022-09-23T13:48:25;26.60;50.10
67027;DHT22;53933;52.142;11.738;2022-09-23T13:50:53;26.50;50.20
67027;DHT22;53933;52.142;11.738;2022-09-23T13:53:23;26.50;50.30
67027;DHT22;53933;52.142;11.738;2022-09-23T13:55:59;26.50;50.40
67027;DHT22;53933;52.142;11.738;2022-09-23T13:58:28;26.50;50.40
67027;DHT22;53933;52.142;11.738;2022-09-23T14:00:55;26.50;50.50
67027;DHT22;53933;52.142;11.738;2022-09-23T14:03:25;26.40;50.50
67027;DHT22;53933;52.142;11.738;2022-09-23T14:05:54;26.40;50.60
67027;DHT22;53933;52.142;11.738;2022-09-23T14:08:21;26.40;50.50
67027;DHT22;53933;52.142;11.738;2022-09-23T14:10:49;26.40;50.60
67027;DHT22;53933;52.142;11.738;2022-09-23T14:13:17;26.50;50.70
67027;DHT22;53933;52.142;11.738;2022-09-23T14:15:46;26.40;50.50
67027;DHT22;53933;52.142;11.738;2022-09-23T14:18:17;26.40;50.40
67027;DHT22;53933;52.142;11.738;2022-09-23T14:20:47;26.30;50.40
67027;DHT22;53933;52.142;11.738;2022-09-23T14:23:15;26.30;50.50
67027;DHT22;53933;52.142;11.738;2022-09-23T14:25:42;26.30;50.60
67027;DHT22;53933;52.142;11.738;2022-09-23T14:28:13;26.30;50.60
67027;DHT22;53933;52.142;11.738;2022-09-23T14:30:40;26.20;50.70
67027;DHT22;53933;52.142;11.738;2022-09-23T14:33:14;26.20;50.80
67027;DHT22;53933;52.142;11.738;2022-09-23T14:35:44;26.20;50.80
67027;DHT22;53933;52.142;11.738;2022-09-23T14:38:20;26.20;50.80
67027;DHT22;53933;52.142;11.738;2022-09-23T14:41:14;26.20;50.80
67027;DHT22;53933;52.142;11.738;2022-09-23T14:43:46;26.20;50.80
67027;DHT22;53933;52.142;11.738;2022-09-23T14:46:16;26.20;50.60
67027;DHT22;53933;52.142;11.738;2022-09-23T14:48:51;26.20;50.10
67027;DHT22;53933;52.142;11.738;2022-09-23T14:51:19;26.30;49.70
67027;DHT22;53933;52.142;11.738;2022-09-23T14:53:48;26.30;50.10
67027;DHT22;53933;52.142;11.738;2022-09-23T14:56:19;26.30;50.20
67027;DHT22;53933;52.142;11.738;2022-09-23T14:58:49;26.30;50.40
67027;DHT22;53933;52.142;11.738;2022-09-23T15:01:32;26.30;50.50
67027;DHT22;53933;52.142;11.738;2022-09-23T15:04:08;26.20;50.60
67027;DHT22;53933;52.142;11.738;2022-09-23T15:06:36;26.20;50.60
67027;DHT22;53933;52.142;11.738;2022-09-23T15:09:05;26.20;50.70
67027;DHT22;53933;52.142;11.738;2022-09-23T15:11:32;26.20;50.70
67027;DHT22;53933;52.142;11.738;2022-09-23T15:14:02;26.20;50.70
67027;DHT22;53933;52.142;11.738;2022-09-23T15:16:29;26.30;50.80
67027;DHT22;53933;52.142;11.738;2022-09-23T15:18:57;26.20;50.60
67027;DHT22;53933;52.142;11.738;2022-09-23T15:21:32;26.30;50.60
67027;DHT22;53933;52.142;11.738;2022-09-23T15:23:59;26.30;50.60
67027;DHT22;53933;52.142;11.738;2022-09-23T15:26:40;26.30;50.60
67027;DHT22;53933;52.142;11.738;2022-09-23T15:29:10;26.30;50.50
67027;DHT22;53933;52.142;11.738;2022-09-23T15:31:37;26.30;50.60
67027;DHT22;53933;52.142;11.738;2022-09-23T15:34:04;26.30;50.70
67027;DHT22;53933;52.142;11.738;2022-09-23T15:36:31;26.30;50.70
67027;DHT22;53933;52.142;11.738;2022-09-23T15:39:00;26.30;50.70
67027;DHT22;53933;52.142;11.738;2022-09-23T15:41:28;26.20;50.80
67027;DHT22;53933;52.142;11.738;2022-09-23T15:43:57;26.20;51.00
67027;DHT22;53933;52.142;11.738;2022-09-23T15:46:28;26.20;51.10
67027;DHT22;53933;52.142;11.738;2022-09-23T15:49:00;26.10;51.20
67027;DHT22;53933;52.142;11.738;2022-09-23T15:51:29;26.10;51.30
67027;DHT22;53933;52.142;11.738;2022-09-23T15:53:56;26.10;51.40